sensor_id;sensor_type;location;lat;lon;timestamp;P1;P2;P0
78408;PMS5003;67697;50.750;-3.270;2024-03-02T00:01:42;4;4;
78408;PMS5003;67697;50.750;-3.270;2024-03-02T00:04:08;5;5;
78408;PMS5003;67697;50.750;-3.270;2024-03-02T00:06:34;2;2;
78408;PMS5003;67697;50.750;-3.270;2024-03-02T00:09:00;4;4;
78408;PMS5003;67697;50.750;-3.270;2024-03-02T00:11:26;8;4;
78408;PMS5003;67697;50.750;-3.270;2024-03-02T00:13:52;6;6;
78408;PMS5003;67697;50.750;-3.270;2024-03-02T00:16:17;4;4;
78408;PMS5003;67697;50.750;-3.270;2024-03-02T00:18:43;8;5;
78408;PMS5003;67697;50.750;-3.270;2024-03-02T00:21:09;8;6;
78408;PMS5003;67697;50.750;-3.270;2024-03-02T00:23:34;6;5;
78408;PMS5003;67697;50.750;-3.270;2024-03-02T00:26:00;9;8;
78408;PMS5003;67697;50.750;-3.270;2024-03-02T00:28:25;10;8;
78408;PMS5003;67697;50.750;-3.270;2024-03-02T00:30:51;9;8;
78408;PMS5003;67697;50.750;-3.270;2024-03-02T00:33:16;10;10;
78408;PMS5003;67697;50.750;-3.270;2024-03-02T00:35:44;12;10;
78408;PMS5003;67697;50.750;-3.270;2024-03-02T00:38:07;10;10;
78408;PMS5003;67697;50.750;-3.270;2024-03-02T00:40:33;16;14;
78408;PMS5003;67697;50.750;-3.270;2024-03-02T00:42:59;15;13;
78408;PMS5003;67697;50.750;-3.270;2024-03-02T00:45:24;12;12;
78408;PMS5003;67697;50.750;-3.270;2024-03-02T00:47:50;12;9;
78408;PMS5003;67697;50.750;-3.270;2024-03-02T00:50:15;12;10;
78408;PMS5003;67697;50.750;-3.270;2024-03-02T00:52:41;10;10;
78408;PMS5003;67697;50.750;-3.270;2024-03-02T00:55:07;9;8;
78408;PMS5003;67697;50.750;-3.270;2024-03-02T00:57:33;10;10;
78408;PMS5003;67697;50.750;-3.270;2024-03-02T00:59:58;17;13;
78408;PMS5003;67697;50.750;-3.270;2024-03-02T01:02:23;13;9;
78408;PMS5003;67697;50.750;-3.270;2024-03-02T01:04:49;13;10;
78408;PMS5003;67697;50.750;-3.270;2024-03-02T01:07:15;9;9;
78408;PMS5003;67697;50.750;-3.270;2024-03-02T01:09:41;19;12;
78408;PMS5003;67697;50.750;-3.270;2024-03-02T01:12:06;15;12;
78408;PMS5003;67697;50.750;-3.270;2024-03-02T01:14:31;13;13;
78408;PMS5003;67697;50.750;-3.270;2024-03-02T01:16:57;12;9;
78408;PMS5003;67697;50.750;-3.270;2024-03-02T01:19:23;10;9;
78408;PMS5003;67697;50.750;-3.270;2024-03-02T01:21:48;9;9;
78408;PMS5003;67697;50.750;-3.270;2024-03-02T01:24:14;13;10;
78408;PMS5003;67697;50.750;-3.270;2024-03-02T01:26:39;12;12;
78408;PMS5003;67697;50.750;-3.270;2024-03-02T01:29:07;10;10;
78408;PMS5003;67697;50.750;-3.270;2024-03-02T01:31:31;10;10;
78408;PMS5003;67697;50.750;-3.270;2024-03-02T01:33:56;9;8;
78408;PMS5003;67697;50.750;-3.270;2024-03-02T01:36:22;12;8;
78408;PMS5003;67697;50.750;-3.270;2024-03-02T01:38:47;9;8;
78408;PMS5003;67697;50.750;-3.270;2024-03-02T01:41:13;13;9;
78408;PMS5003;67697;50.750;-3.270;2024-03-02T01:43:39;9;6;
78408;PMS5003;67697;50.750;-3.270;2024-03-02T01:46:04;12;11;
78408;PMS5003;67697;50.750;-3.270;2024-03-02T01:48:30;9;9;
78408;PMS5003;67697;50.750;-3.270;2024-03-02T01:50:55;9;9;
78408;PMS5003;67697;50.750;-3.270;2024-03-02T01:53:21;6;6;
78408;PMS5003;67697;50.750;-3.270;2024-03-02T01:55:46;8;8;
78408;PMS5003;67697;50.750;-3.270;2024-03-02T01:58:11;13;13;
78408;PMS5003;67697;50.750;-3.270;2024-03-02T02:00:36;13;12;
78408;PMS5003;67697;50.750;-3.270;2024-03-02T02:03:02;16;12;
78408;PMS5003;67697;50.750;-3.270;2024-03-02T02:05:28;12;10;
78408;PMS5003;67697;50.750;-3.270;2024-03-02T02:07:54;11;8;
78408;PMS5003;67697;50.750;-3.270;2024-03-02T02:10:20;12;12;
78408;PMS5003;67697;50.750;-3.270;2024-03-02T02:12:45;12;10;
78408;PMS5003;67697;50.750;-3.270;2024-03-02T02:17:37;10;10;
78408;PMS5003;67697;50.750;-3.270;2024-03-02T02:20:02;12;12;
78408;PMS5003;67697;50.750;-3.270;2024-03-02T02:22:27;17;15;
78408;PMS5003;67697;50.750;-3.270;2024-03-02T02:24:53;13;13;
78408;PMS5003;67697;50.750;-3.270;2024-03-02T02:27:19;16;15;
78408;PMS5003;67697;50.750;-3.270;2024-03-02T02:29:45;19;16;
78408;PMS5003;67697;50.750;-3.270;2024-03-02T02:32:10;13;12;
78408;PMS5003;67697;50.750;-3.270;2024-03-02T02:34:36;17;12;
78408;PMS5003;67697;50.750;-3.270;2024-03-02T02:37:02;16;13;
78408;PMS5003;67697;50.750;-3.270;2024-03-02T02:39:27;14;13;
78408;PMS5003;67697;50.750;-3.270;2024-03-02T02:41:52;17;12;
78408;PMS5003;67697;50.750;-3.270;2024-03-02T02:44:18;13;12;
78408;PMS5003;67697;50.750;-3.270;2024-03-02T02:46:44;15;13;
78408;PMS5003;67697;50.750;-3.270;2024-03-02T02:49:10;14;12;
78408;PMS5003;67697;50.750;-3.270;2024-03-02T02:51:36;16;10;
78408;PMS5003;67697;50.750;-3.270;2024-03-02T02:54:02;10;9;
78408;PMS5003;67697;50.750;-3.270;2024-03-02T02:56:27;13;12;
78408;PMS5003;67697;50.750;-3.270;2024-03-02T02:58:53;12;10;
78408;PMS5003;67697;50.750;-3.270;2024-03-02T03:01:19;13;13;
78408;PMS5003;67697;50.750;-3.270;2024-03-02T03:03:45;13;12;
78408;PMS5003;67697;50.750;-3.270;2024-03-02T03:06:12;13;10;
78408;PMS5003;67697;50.750;-3.270;2024-03-02T03:08:36;9;8;
78408;PMS5003;67697;50.750;-3.270;2024-03-02T03:11:02;8;8;
78408;PMS5003;67697;50.750;-3.270;2024-03-02T03:13:27;9;9;
78408;PMS5003;67697;50.750;-3.270;2024-03-02T03:15:53;8;8;
78408;PMS5003;67697;50.750;-3.270;2024-03-02T03:18:19;9;8;
78408;PMS5003;67697;50.750;-3.270;2024-03-02T03:20:45;8;8;
78408;PMS5003;67697;50.750;-3.270;2024-03-02T03:23:11;10;8;
78408;PMS5003;67697;50.750;-3.270;2024-03-02T03:25:37;8;8;
78408;PMS5003;67697;50.750;-3.270;2024-03-02T03:28:02;5;5;
78408;PMS5003;67697;50.750;-3.270;2024-03-02T03:30:28;8;6;
78408;PMS5003;67697;50.750;-3.270;2024-03-02T03:32:54;5;2;
78408;PMS5003;67697;50.750;-3.270;2024-03-02T03:35:20;6;5;
78408;PMS5003;67697;50.750;-3.270;2024-03-02T03:37:46;5;5;
78408;PMS5003;67697;50.750;-3.270;2024-03-02T03:40:11;5;5;
78408;PMS5003;67697;50.750;-3.270;2024-03-02T03:42:37;4;4;
78408;PMS5003;67697;50.750;-3.270;2024-03-02T03:45:03;2;2;
78408;PMS5003;67697;50.750;-3.270;2024-03-02T03:47:29;2;2;
78408;PMS5003;67697;50.750;-3.270;2024-03-02T03:49:55;5;5;
78408;PMS5003;67697;50.750;-3.270;2024-03-02T03:52:20;4;4;
78408;PMS5003;67697;50.750;-3.270;2024-03-02T03:54:46;8;6;
78408;PMS5003;67697;50.750;-3.270;2024-03-02T03:57:12;5;5;
78408;PMS5003;67697;50.750;-3.270;2024-03-02T03:59:38;9;9;
78408;PMS5003;67697;50.750;-3.270;2024-03-02T04:02:04;8;5;
78408;PMS5003;67697;50.750;-3.270;2024-03-02T04:04:29;5;5;
78408;PMS5003;67697;50.750;-3.270;2024-03-02T04:06:55;6;6;
78408;PMS5003;67697;50.750;-3.270;2024-03-02T04:09:21;6;6;
78408;PMS5003;67697;50.750;-3.270;2024-03-02T04:11:47;9;8;
78408;PMS5003;67697;50.750;-3.270;2024-03-02T04:14:13;13;10;
78408;PMS5003;67697;50.750;-3.270;2024-03-02T04:16:38;8;8;
78408;PMS5003;67697;50.750;-3.270;2024-03-02T04:19:04;9;6;
78408;PMS5003;67697;50.750;-3.270;2024-03-02T04:21:30;6;6;
78408;PMS5003;67697;50.750;-3.270;2024-03-02T04:23:56;8;6;
78408;PMS5003;67697;50.750;-3.270;2024-03-02T04:26:21;5;5;
78408;PMS5003;67697;50.750;-3.270;2024-03-02T04:28:46;4;4;
78408;PMS5003;67697;50.750;-3.270;2024-03-02T04:31:12;8;8;
78408;PMS5003;67697;50.750;-3.270;2024-03-02T04:33:37;5;5;
78408;PMS5003;67697;50.750;-3.270;2024-03-02T04:36:03;6;6;
78408;PMS5003;67697;50.750;-3.270;2024-03-02T04:38:28;5;4;
78408;PMS5003;67697;50.750;-3.270;2024-03-02T04:40:54;5;5;
78408;PMS5003;67697;50.750;-3.270;2024-03-02T04:43:20;4;4;
78408;PMS5003;67697;50.750;-3.270;2024-03-02T04:45:46;5;5;
78408;PMS5003;67697;50.750;-3.270;2024-03-02T04:48:13;6;4;
78408;PMS5003;67697;50.750;-3.270;2024-03-02T04:50:37;8;5;
78408;PMS5003;67697;50.750;-3.270;2024-03-02T04:53:03;5;5;
78408;PMS5003;67697;50.750;-3.270;2024-03-02T04:55:29;2;2;
78408;PMS5003;67697;50.750;-3.270;2024-03-02T04:57:55;8;5;
78408;PMS5003;67697;50.750;-3.270;2024-03-02T05:00:20;4;4;
78408;PMS5003;67697;50.750;-3.270;2024-03-02T05:02:46;6;4;
78408;PMS5003;67697;50.750;-3.270;2024-03-02T05:05:12;8;8;
78408;PMS5003;67697;50.750;-3.270;2024-03-02T05:07:37;5;5;
78408;PMS5003;67697;50.750;-3.270;2024-03-02T05:10:03;9;5;
78408;PMS5003;67697;50.750;-3.270;2024-03-02T05:12:29;5;5;
78408;PMS5003;67697;50.750;-3.270;2024-03-02T05:14:55;5;5;
78408;PMS5003;67697;50.750;-3.270;2024-03-02T05:17:21;8;5;
78408;PMS5003;67697;50.750;-3.270;2024-03-02T05:19:47;5;5;
78408;PMS5003;67697;50.750;-3.270;2024-03-02T05:22:12;3;3;
78408;PMS5003;67697;50.750;-3.270;2024-03-02T05:24:38;5;5;
78408;PMS5003;67697;50.750;-3.270;2024-03-02T05:27:04;9;5;
78408;PMS5003;67697;50.750;-3.270;2024-03-02T05:29:30;6;6;
78408;PMS5003;67697;50.750;-3.270;2024-03-02T05:31:55;6;6;
78408;PMS5003;67697;50.750;-3.270;2024-03-02T05:34:21;6;5;
78408;PMS5003;67697;50.750;-3.270;2024-03-02T05:36:47;6;4;
78408;PMS5003;67697;50.750;-3.270;2024-03-02T05:39:13;6;6;
78408;PMS5003;67697;50.750;-3.270;2024-03-02T05:41:39;6;5;
78408;PMS5003;67697;50.750;-3.270;2024-03-02T05:44:05;6;5;
78408;PMS5003;67697;50.750;-3.270;2024-03-02T05:46:30;8;8;
78408;PMS5003;67697;50.750;-3.270;2024-03-02T05:48:56;9;8;
78408;PMS5003;67697;50.750;-3.270;2024-03-02T05:51:22;8;5;
78408;PMS5003;67697;50.750;-3.270;2024-03-02T05:53:47;5;5;
78408;PMS5003;67697;50.750;-3.270;2024-03-02T05:56:13;6;5;
78408;PMS5003;67697;50.750;-3.270;2024-03-02T05:58:40;9;6;
78408;PMS5003;67697;50.750;-3.270;2024-03-02T06:01:05;5;5;
78408;PMS5003;67697;50.750;-3.270;2024-03-02T06:03:31;6;5;
78408;PMS5003;67697;50.750;-3.270;2024-03-02T06:05:56;13;10;
78408;PMS5003;67697;50.750;-3.270;2024-03-02T06:08:21;10;8;
78408;PMS5003;67697;50.750;-3.270;2024-03-02T06:10:47;5;5;
78408;PMS5003;67697;50.750;-3.270;2024-03-02T06:13:14;10;6;
78408;PMS5003;67697;50.750;-3.270;2024-03-02T06:15:38;8;6;
78408;PMS5003;67697;50.750;-3.270;2024-03-02T06:18:04;9;9;
78408;PMS5003;67697;50.750;-3.270;2024-03-02T06:20:30;11;6;
78408;PMS5003;67697;50.750;-3.270;2024-03-02T06:22:56;9;6;
78408;PMS5003;67697;50.750;-3.270;2024-03-02T06:25:21;9;9;
78408;PMS5003;67697;50.750;-3.270;2024-03-02T06:27:47;6;5;
78408;PMS5003;67697;50.750;-3.270;2024-03-02T06:30:12;15;12;
78408;PMS5003;67697;50.750;-3.270;2024-03-02T06:32:38;11;11;
78408;PMS5003;67697;50.750;-3.270;2024-03-02T06:35:04;8;8;
78408;PMS5003;67697;50.750;-3.270;2024-03-02T06:37:30;8;8;
78408;PMS5003;67697;50.750;-3.270;2024-03-02T06:39:55;11;11;
78408;PMS5003;67697;50.750;-3.270;2024-03-02T06:42:21;8;8;
78408;PMS5003;67697;50.750;-3.270;2024-03-02T06:44:47;12;9;
78408;PMS5003;67697;50.750;-3.270;2024-03-02T06:47:13;12;10;
78408;PMS5003;67697;50.750;-3.270;2024-03-02T06:49:38;10;10;
78408;PMS5003;67697;50.750;-3.270;2024-03-02T06:52:03;10;6;
78408;PMS5003;67697;50.750;-3.270;2024-03-02T06:54:28;13;12;
78408;PMS5003;67697;50.750;-3.270;2024-03-02T06:56:54;16;12;
78408;PMS5003;67697;50.750;-3.270;2024-03-02T06:59:20;13;10;
78408;PMS5003;67697;50.750;-3.270;2024-03-02T07:01:45;13;9;
78408;PMS5003;67697;50.750;-3.270;2024-03-02T07:04:11;9;9;
78408;PMS5003;67697;50.750;-3.270;2024-03-02T07:06:36;8;8;
78408;PMS5003;67697;50.750;-3.270;2024-03-02T07:09:02;13;9;
78408;PMS5003;67697;50.750;-3.270;2024-03-02T07:11:27;15;13;
78408;PMS5003;67697;50.750;-3.270;2024-03-02T07:13:54;13;10;
78408;PMS5003;67697;50.750;-3.270;2024-03-02T07:16:18;16;12;
78408;PMS5003;67697;50.750;-3.270;2024-03-02T07:18:44;16;15;
78408;PMS5003;67697;50.750;-3.270;2024-03-02T07:21:10;17;12;
78408;PMS5003;67697;50.750;-3.270;2024-03-02T07:23:35;15;12;
78408;PMS5003;67697;50.750;-3.270;2024-03-02T07:26:01;10;10;
78408;PMS5003;67697;50.750;-3.270;2024-03-02T07:28:26;16;10;
78408;PMS5003;67697;50.750;-3.270;2024-03-02T07:33:18;13;12;
78408;PMS5003;67697;50.750;-3.270;2024-03-02T07:35:43;16;12;
78408;PMS5003;67697;50.750;-3.270;2024-03-02T07:38:09;12;10;
78408;PMS5003;67697;50.750;-3.270;2024-03-02T07:40:35;10;10;
78408;PMS5003;67697;50.750;-3.270;2024-03-02T07:43:01;12;10;
78408;PMS5003;67697;50.750;-3.270;2024-03-02T07:45:26;21;17;
78408;PMS5003;67697;50.750;-3.270;2024-03-02T07:47:52;13;11;
78408;PMS5003;67697;50.750;-3.270;2024-03-02T07:50:17;13;10;
78408;PMS5003;67697;50.750;-3.270;2024-03-02T07:52:43;16;12;
78408;PMS5003;67697;50.750;-3.270;2024-03-02T07:55:09;13;13;
78408;PMS5003;67697;50.750;-3.270;2024-03-02T07:57:35;9;9;
78408;PMS5003;67697;50.750;-3.270;2024-03-02T08:00:00;13;13;
78408;PMS5003;67697;50.750;-3.270;2024-03-02T08:02:26;13;10;
78408;PMS5003;67697;50.750;-3.270;2024-03-02T08:04:52;14;14;
78408;PMS5003;67697;50.750;-3.270;2024-03-02T08:07:18;13;10;
78408;PMS5003;67697;50.750;-3.270;2024-03-02T08:09:43;13;12;
78408;PMS5003;67697;50.750;-3.270;2024-03-02T08:12:10;5;5;
78408;PMS5003;67697;50.750;-3.270;2024-03-02T08:14:35;10;9;
78408;PMS5003;67697;50.750;-3.270;2024-03-02T08:17:01;9;9;
78408;PMS5003;67697;50.750;-3.270;2024-03-02T08:19:27;13;9;
78408;PMS5003;67697;50.750;-3.270;2024-03-02T08:21:53;9;5;
78408;PMS5003;67697;50.750;-3.270;2024-03-02T08:24:18;13;12;
78408;PMS5003;67697;50.750;-3.270;2024-03-02T08:26:44;10;6;
78408;PMS5003;67697;50.750;-3.270;2024-03-02T08:29:10;10;10;
78408;PMS5003;67697;50.750;-3.270;2024-03-02T08:31:36;10;9;
78408;PMS5003;67697;50.750;-3.270;2024-03-02T08:34:01;12;10;
78408;PMS5003;67697;50.750;-3.270;2024-03-02T08:36:27;6;6;
78408;PMS5003;67697;50.750;-3.270;2024-03-02T08:38:53;8;8;
78408;PMS5003;67697;50.750;-3.270;2024-03-02T08:41:18;10;8;
78408;PMS5003;67697;50.750;-3.270;2024-03-02T08:43:44;6;6;
78408;PMS5003;67697;50.750;-3.270;2024-03-02T08:46:10;8;6;
78408;PMS5003;67697;50.750;-3.270;2024-03-02T08:48:36;8;6;
78408;PMS5003;67697;50.750;-3.270;2024-03-02T08:51:02;12;6;
78408;PMS5003;67697;50.750;-3.270;2024-03-02T08:53:27;5;5;
78408;PMS5003;67697;50.750;-3.270;2024-03-02T08:55:53;8;8;
78408;PMS5003;67697;50.750;-3.270;2024-03-02T08:58:19;5;5;
78408;PMS5003;67697;50.750;-3.270;2024-03-02T09:00:44;5;5;
78408;PMS5003;67697;50.750;-3.270;2024-03-02T09:03:10;8;6;
78408;PMS5003;67697;50.750;-3.270;2024-03-02T09:05:36;8;6;
78408;PMS5003;67697;50.750;-3.270;2024-03-02T09:08:02;6;6;
78408;PMS5003;67697;50.750;-3.270;2024-03-02T09:10:28;6;6;
78408;PMS5003;67697;50.750;-3.270;2024-03-02T09:12:53;8;6;
78408;PMS5003;67697;50.750;-3.270;2024-03-02T09:15:20;9;6;
78408;PMS5003;67697;50.750;-3.270;2024-03-02T09:17:45;6;6;
78408;PMS5003;67697;50.750;-3.270;2024-03-02T09:20:11;9;9;
78408;PMS5003;67697;50.750;-3.270;2024-03-02T09:22:37;10;6;
78408;PMS5003;67697;50.750;-3.270;2024-03-02T09:25:03;5;5;
78408;PMS5003;67697;50.750;-3.270;2024-03-02T09:27:28;6;3;
78408;PMS5003;67697;50.750;-3.270;2024-03-02T09:29:54;5;5;
78408;PMS5003;67697;50.750;-3.270;2024-03-02T09:32:20;6;6;
78408;PMS5003;67697;50.750;-3.270;2024-03-02T09:34:46;5;5;
78408;PMS5003;67697;50.750;-3.270;2024-03-02T09:37:11;3;3;
78408;PMS5003;67697;50.750;-3.270;2024-03-02T09:39:37;5;3;
78408;PMS5003;67697;50.750;-3.270;2024-03-02T09:42:03;7;6;
78408;PMS5003;67697;50.750;-3.270;2024-03-02T09:44:29;6;5;
78408;PMS5003;67697;50.750;-3.270;2024-03-02T09:46:54;6;3;
78408;PMS5003;67697;50.750;-3.270;2024-03-02T09:49:20;5;3;
78408;PMS5003;67697;50.750;-3.270;2024-03-02T09:51:46;3;2;
78408;PMS5003;67697;50.750;-3.270;2024-03-02T09:54:12;3;3;
78408;PMS5003;67697;50.750;-3.270;2024-03-02T09:56:38;5;5;
78408;PMS5003;67697;50.750;-3.270;2024-03-02T09:59:03;3;3;
78408;PMS5003;67697;50.750;-3.270;2024-03-02T10:01:29;3;3;
78408;PMS5003;67697;50.750;-3.270;2024-03-02T10:03:55;3;3;
78408;PMS5003;67697;50.750;-3.270;2024-03-02T10:06:21;2;2;
78408;PMS5003;67697;50.750;-3.270;2024-03-02T10:08:46;3;3;
78408;PMS5003;67697;50.750;-3.270;2024-03-02T10:11:14;6;5;
78408;PMS5003;67697;50.750;-3.270;2024-03-02T10:13:37;5;5;
78408;PMS5003;67697;50.750;-3.270;2024-03-02T10:16:06;1;1;
78408;PMS5003;67697;50.750;-3.270;2024-03-02T10:18:29;5;2;
78408;PMS5003;67697;50.750;-3.270;2024-03-02T10:20:54;3;1;
78408;PMS5003;67697;50.750;-3.270;2024-03-02T10:23:20;2;2;
78408;PMS5003;67697;50.750;-3.270;2024-03-02T10:25:46;2;1;
78408;PMS5003;67697;50.750;-3.270;2024-03-02T10:28:12;1;1;
78408;PMS5003;67697;50.750;-3.270;2024-03-02T10:30:37;2;2;
78408;PMS5003;67697;50.750;-3.270;2024-03-02T10:33:03;5;3;
78408;PMS5003;67697;50.750;-3.270;2024-03-02T10:35:29;2;2;
78408;PMS5003;67697;50.750;-3.270;2024-03-02T10:37:54;3;2;
78408;PMS5003;67697;50.750;-3.270;2024-03-02T10:40:21;2;2;
78408;PMS5003;67697;50.750;-3.270;2024-03-02T10:42:46;3;2;
78408;PMS5003;67697;50.750;-3.270;2024-03-02T10:45:12;5;2;
78408;PMS5003;67697;50.750;-3.270;2024-03-02T10:47:38;2;2;
78408;PMS5003;67697;50.750;-3.270;2024-03-02T10:50:04;3;3;
78408;PMS5003;67697;50.750;-3.270;2024-03-02T10:52:29;2;2;
78408;PMS5003;67697;50.750;-3.270;2024-03-02T10:54:55;2;2;
78408;PMS5003;67697;50.750;-3.270;2024-03-02T10:57:21;2;2;
78408;PMS5003;67697;50.750;-3.270;2024-03-02T10:59:48;2;2;
78408;PMS5003;67697;50.750;-3.270;2024-03-02T11:02:12;6;3;
78408;PMS5003;67697;50.750;-3.270;2024-03-02T11:04:38;5;2;
78408;PMS5003;67697;50.750;-3.270;2024-03-02T11:07:04;2;2;
78408;PMS5003;67697;50.750;-3.270;2024-03-02T11:09:29;3;3;
78408;PMS5003;67697;50.750;-3.270;2024-03-02T11:11:58;5;3;
78408;PMS5003;67697;50.750;-3.270;2024-03-02T11:14:21;2;2;
78408;PMS5003;67697;50.750;-3.270;2024-03-02T11:16:46;3;2;
78408;PMS5003;67697;50.750;-3.270;2024-03-02T11:19:13;1;1;
78408;PMS5003;67697;50.750;-3.270;2024-03-02T11:21:38;3;3;
78408;PMS5003;67697;50.750;-3.270;2024-03-02T11:26:29;3;3;
78408;PMS5003;67697;50.750;-3.270;2024-03-02T11:28:55;5;3;
78408;PMS5003;67697;50.750;-3.270;2024-03-02T11:31:21;2;2;
78408;PMS5003;67697;50.750;-3.270;2024-03-02T11:33:46;2;2;
78408;PMS5003;67697;50.750;-3.270;2024-03-02T11:36:12;6;5;
78408;PMS5003;67697;50.750;-3.270;2024-03-02T11:38:37;3;3;
78408;PMS5003;67697;50.750;-3.270;2024-03-02T11:41:06;3;3;
78408;PMS5003;67697;50.750;-3.270;2024-03-02T11:43:29;3;1;
78408;PMS5003;67697;50.750;-3.270;2024-03-02T11:45:59;2;2;
78408;PMS5003;67697;50.750;-3.270;2024-03-02T11:48:21;3;3;
78408;PMS5003;67697;50.750;-3.270;2024-03-02T11:50:47;1;1;
78408;PMS5003;67697;50.750;-3.270;2024-03-02T11:53:12;1;1;
78408;PMS5003;67697;50.750;-3.270;2024-03-02T11:55:38;3;2;
78408;PMS5003;67697;50.750;-3.270;2024-03-02T11:58:05;3;3;
78408;PMS5003;67697;50.750;-3.270;2024-03-02T12:00:29;3;3;
78408;PMS5003;67697;50.750;-3.270;2024-03-02T12:02:59;3;2;
78408;PMS5003;67697;50.750;-3.270;2024-03-02T12:05:21;5;2;
78408;PMS5003;67697;50.750;-3.270;2024-03-02T12:07:47;2;2;
78408;PMS5003;67697;50.750;-3.270;2024-03-02T12:10:12;3;2;
78408;PMS5003;67697;50.750;-3.270;2024-03-02T12:12:38;2;2;
78408;PMS5003;67697;50.750;-3.270;2024-03-02T12:15:04;2;1;
78408;PMS5003;67697;50.750;-3.270;2024-03-02T12:17:30;6;1;
78408;PMS5003;67697;50.750;-3.270;2024-03-02T12:19:55;1;1;
78408;PMS5003;67697;50.750;-3.270;2024-03-02T12:22:21;3;2;
78408;PMS5003;67697;50.750;-3.270;2024-03-02T12:24:48;2;2;
78408;PMS5003;67697;50.750;-3.270;2024-03-02T12:27:12;1;1;
78408;PMS5003;67697;50.750;-3.270;2024-03-02T12:29:38;0;0;
78408;PMS5003;67697;50.750;-3.270;2024-03-02T12:32:04;1;1;
78408;PMS5003;67697;50.750;-3.270;2024-03-02T12:34:29;3;2;
78408;PMS5003;67697;50.750;-3.270;2024-03-02T12:36:55;1;1;
78408;PMS5003;67697;50.750;-3.270;2024-03-02T12:39:21;2;1;
78408;PMS5003;67697;50.750;-3.270;2024-03-02T12:41:47;1;1;
78408;PMS5003;67697;50.750;-3.270;2024-03-02T12:44:13;3;1;
78408;PMS5003;67697;50.750;-3.270;2024-03-02T12:46:38;2;2;
78408;PMS5003;67697;50.750;-3.270;2024-03-02T12:49:07;1;1;
78408;PMS5003;67697;50.750;-3.270;2024-03-02T12:51:30;1;1;
78408;PMS5003;67697;50.750;-3.270;2024-03-02T12:53:55;1;1;
78408;PMS5003;67697;50.750;-3.270;2024-03-02T12:56:22;1;1;
78408;PMS5003;67697;50.750;-3.270;2024-03-02T12:58:47;2;1;
78408;PMS5003;67697;50.750;-3.270;2024-03-02T13:01:14;1;1;
78408;PMS5003;67697;50.750;-3.270;2024-03-02T13:03:38;1;1;
78408;PMS5003;67697;50.750;-3.270;2024-03-02T13:06:04;2;1;
78408;PMS5003;67697;50.750;-3.270;2024-03-02T13:08:29;1;0;
78408;PMS5003;67697;50.750;-3.270;2024-03-02T13:10:55;1;1;
78408;PMS5003;67697;50.750;-3.270;2024-03-02T13:13:21;0;0;
78408;PMS5003;67697;50.750;-3.270;2024-03-02T13:15:46;0;0;
78408;PMS5003;67697;50.750;-3.270;2024-03-02T13:18:12;1;1;
78408;PMS5003;67697;50.750;-3.270;2024-03-02T13:20:38;1;1;
78408;PMS5003;67697;50.750;-3.270;2024-03-02T13:23:04;1;1;
78408;PMS5003;67697;50.750;-3.270;2024-03-02T13:25:29;0;0;
78408;PMS5003;67697;50.750;-3.270;2024-03-02T13:27:55;0;0;
78408;PMS5003;67697;50.750;-3.270;2024-03-02T13:30:21;1;1;
78408;PMS5003;67697;50.750;-3.270;2024-03-02T13:32:46;0;0;
78408;PMS5003;67697;50.750;-3.270;2024-03-02T13:35:12;1;1;
78408;PMS5003;67697;50.750;-3.270;2024-03-02T13:37:37;1;1;
78408;PMS5003;67697;50.750;-3.270;2024-03-02T13:40:03;2;1;
78408;PMS5003;67697;50.750;-3.270;2024-03-02T13:42:29;1;1;
78408;PMS5003;67697;50.750;-3.270;2024-03-02T13:44:54;0;0;
78408;PMS5003;67697;50.750;-3.270;2024-03-02T13:47:20;0;0;
78408;PMS5003;67697;50.750;-3.270;2024-03-02T13:49:46;0;0;
78408;PMS5003;67697;50.750;-3.270;2024-03-02T13:52:12;1;1;
78408;PMS5003;67697;50.750;-3.270;2024-03-02T13:54:37;1;1;
78408;PMS5003;67697;50.750;-3.270;2024-03-02T13:57:03;1;1;
78408;PMS5003;67697;50.750;-3.270;2024-03-02T13:59:28;1;1;
78408;PMS5003;67697;50.750;-3.270;2024-03-02T14:01:54;2;0;
78408;PMS5003;67697;50.750;-3.270;2024-03-02T14:04:20;2;2;
78408;PMS5003;67697;50.750;-3.270;2024-03-02T14:06:45;4;2;
78408;PMS5003;67697;50.750;-3.270;2024-03-02T14:09:11;2;2;
78408;PMS5003;67697;50.750;-3.270;2024-03-02T14:11:37;1;1;
78408;PMS5003;67697;50.750;-3.270;2024-03-02T14:14:03;2;2;
78408;PMS5003;67697;50.750;-3.270;2024-03-02T14:16:28;2;2;
78408;PMS5003;67697;50.750;-3.270;2024-03-02T14:18:54;1;1;
78408;PMS5003;67697;50.750;-3.270;2024-03-02T14:21:21;1;1;
78408;PMS5003;67697;50.750;-3.270;2024-03-02T14:23:45;2;1;
78408;PMS5003;67697;50.750;-3.270;2024-03-02T14:26:11;1;1;
78408;PMS5003;67697;50.750;-3.270;2024-03-02T14:28:37;0;0;
78408;PMS5003;67697;50.750;-3.270;2024-03-02T14:31:03;2;2;
78408;PMS5003;67697;50.750;-3.270;2024-03-02T14:33:28;1;1;
78408;PMS5003;67697;50.750;-3.270;2024-03-02T14:35:54;2;2;
78408;PMS5003;67697;50.750;-3.270;2024-03-02T14:38:19;1;1;
78408;PMS5003;67697;50.750;-3.270;2024-03-02T14:40:45;4;3;
78408;PMS5003;67697;50.750;-3.270;2024-03-02T14:43:11;3;3;
78408;PMS5003;67697;50.750;-3.270;2024-03-02T14:45:36;4;2;
78408;PMS5003;67697;50.750;-3.270;2024-03-02T14:48:03;2;2;
78408;PMS5003;67697;50.750;-3.270;2024-03-02T14:50:28;2;2;
78408;PMS5003;67697;50.750;-3.270;2024-03-02T14:52:53;3;2;
78408;PMS5003;67697;50.750;-3.270;2024-03-02T14:55:19;2;2;
78408;PMS5003;67697;50.750;-3.270;2024-03-02T14:57:45;1;1;
78408;PMS5003;67697;50.750;-3.270;2024-03-02T15:00:11;2;2;
78408;PMS5003;67697;50.750;-3.270;2024-03-02T15:02:36;1;1;
78408;PMS5003;67697;50.750;-3.270;2024-03-02T15:05:02;2;2;
78408;PMS5003;67697;50.750;-3.270;2024-03-02T15:07:28;3;3;
78408;PMS5003;67697;50.750;-3.270;2024-03-02T15:09:53;1;1;
78408;PMS5003;67697;50.750;-3.270;2024-03-02T15:12:19;5;5;
78408;PMS5003;67697;50.750;-3.270;2024-03-02T15:14:45;8;6;
78408;PMS5003;67697;50.750;-3.270;2024-03-02T15:17:11;7;7;
78408;PMS5003;67697;50.750;-3.270;2024-03-02T15:19:36;3;3;
78408;PMS5003;67697;50.750;-3.270;2024-03-02T15:22:02;3;2;
78408;PMS5003;67697;50.750;-3.270;2024-03-02T15:24:28;5;3;
78408;PMS5003;67697;50.750;-3.270;2024-03-02T15:26:53;5;3;
78408;PMS5003;67697;50.750;-3.270;2024-03-02T15:29:19;8;8;
78408;PMS5003;67697;50.750;-3.270;2024-03-02T15:31:45;6;6;
78408;PMS5003;67697;50.750;-3.270;2024-03-02T15:34:11;2;2;
78408;PMS5003;67697;50.750;-3.270;2024-03-02T15:36:36;1;1;
78408;PMS5003;67697;50.750;-3.270;2024-03-02T15:39:02;0;0;
78408;PMS5003;67697;50.750;-3.270;2024-03-02T15:51:16;1;1;
78408;PMS5003;67697;50.750;-3.270;2024-03-02T15:53:37;0;0;
78408;PMS5003;67697;50.750;-3.270;2024-03-02T15:56:02;2;2;
78408;PMS5003;67697;50.750;-3.270;2024-03-02T15:58:28;1;1;
78408;PMS5003;67697;50.750;-3.270;2024-03-02T16:00:54;0;0;
78408;PMS5003;67697;50.750;-3.270;2024-03-02T16:03:20;0;0;
78408;PMS5003;67697;50.750;-3.270;2024-03-02T16:05:45;1;1;
78408;PMS5003;67697;50.750;-3.270;2024-03-02T16:08:11;0;0;
78408;PMS5003;67697;50.750;-3.270;2024-03-02T16:10:37;0;0;
78408;PMS5003;67697;50.750;-3.270;2024-03-02T16:13:02;1;1;
78408;PMS5003;67697;50.750;-3.270;2024-03-02T16:15:28;1;1;
78408;PMS5003;67697;50.750;-3.270;2024-03-02T16:17:54;2;1;
78408;PMS5003;67697;50.750;-3.270;2024-03-02T16:20:20;1;1;
78408;PMS5003;67697;50.750;-3.270;2024-03-02T16:22:45;0;0;
78408;PMS5003;67697;50.750;-3.270;2024-03-02T16:25:11;1;1;
78408;PMS5003;67697;50.750;-3.270;2024-03-02T16:27:37;0;0;
78408;PMS5003;67697;50.750;-3.270;2024-03-02T16:30:05;1;1;
78408;PMS5003;67697;50.750;-3.270;2024-03-02T16:32:28;1;1;